sensor_id;sensor_type;location;lat;lon;timestamp;pressure;altitude;pressure_sealevel;temperature;humidity
63111;BME280;49201;53.426;10.300;2023-01-25T00:00:13;103922.25;;;0.55;100.00
63111;BME280;49201;53.426;10.300;2023-01-25T00:02:39;103921.38;;;0.55;100.00
63111;BME280;49201;53.426;10.300;2023-01-25T00:05:04;103913.88;;;0.47;100.00
63111;BME280;49201;53.426;10.300;2023-01-25T00:07:30;103913.47;;;0.52;100.00
63111;BME280;49201;53.426;10.300;2023-01-25T00:09:55;103912.09;;;0.47;100.00
63111;BME280;49201;53.426;10.300;2023-01-25T00:12:21;103906.31;;;0.47;100.00
63111;BME280;49201;53.426;10.300;2023-01-25T00:14:46;103910.88;;;0.43;100.00
63111;BME280;49201;53.426;10.300;2023-01-25T00:17:12;103901.38;;;0.41;100.00
63111;BME280;49201;53.426;10.300;2023-01-25T00:19:37;103897.72;;;0.46;100.00
63111;BME280;49201;53.426;10.300;2023-01-25T00:22:02;103888.06;;;0.34;100.00
63111;BME280;49201;53.426;10.300;2023-01-25T00:24:28;103890.75;;;0.36;100.00
63111;BME280;49201;53.426;10.300;2023-01-25T00:26:53;103882.16;;;0.34;100.00
63111;BME280;49201;53.426;10.300;2023-01-25T00:29:19;103879.41;;;0.40;100.00
63111;BME280;49201;53.426;10.300;2023-01-25T00:36:51;103883.22;;;0.36;100.00
63111;BME280;49201;53.426;10.300;2023-01-25T00:39:17;103881.66;;;0.29;100.00
63111;BME280;49201;53.426;10.300;2023-01-25T00:41:44;103874.59;;;0.34;100.00
63111;BME280;49201;53.426;10.300;2023-01-25T00:44:09;103873.13;;;0.36;100.00
63111;BME280;49201;53.426;10.300;2023-01-25T00:46:35;103875.81;;;0.38;100.00
63111;BME280;49201;53.426;10.300;2023-01-25T00:49:00;103872.81;;;0.33;100.00
63111;BME280;49201;53.426;10.300;2023-01-25T00:51:25;103866.69;;;0.31;100.00
63111;BME280;49201;53.426;10.300;2023-01-25T00:53:51;103867.25;;;0.28;100.00
63111;BME280;49201;53.426;10.300;2023-01-25T00:56:17;103862.78;;;0.26;100.00
63111;BME280;49201;53.426;10.300;2023-01-25T00:58:42;103860.09;;;0.24;100.00
63111;BME280;49201;53.426;10.300;2023-01-25T01:01:09;103857.09;;;0.20;100.00
63111;BME280;49201;53.426;10.300;2023-01-25T01:03:35;103854.63;;;0.13;100.00
63111;BME280;49201;53.426;10.300;2023-01-25T01:06:07;103853.50;;;0.18;100.00
63111;BME280;49201;53.426;10.300;2023-01-25T01:08:33;103844.91;;;0.16;100.00
63111;BME280;49201;53.426;10.300;2023-01-25T01:11:04;103840.91;;;0.18;100.00
63111;BME280;49201;53.426;10.300;2023-01-25T01:13:29;103851.72;;;0.17;100.00
63111;BME280;49201;53.426;10.300;2023-01-25T01:15:56;103851.78;;;0.10;100.00
63111;BME280;49201;53.426;10.300;2023-01-25T01:18:22;103850.97;;;0.03;100.00
63111;BME280;49201;53.426;10.300;2023-01-25T01:20:51;103843.41;;;0.03;100.00
63111;BME280;49201;53.426;10.300;2023-01-25T01:23:20;103849.50;;;0.04;100.00
63111;BME280;49201;53.426;10.300;2023-01-25T01:25:46;103843.91;;;0.07;100.00
63111;BME280;49201;53.426;10.300;2023-01-25T01:28:12;103844.94;;;0.09;100.00
63111;BME280;49201;53.426;10.300;2023-01-25T01:30:38;103849.09;;;0.08;100.00
63111;BME280;49201;53.426;10.300;2023-01-25T01:33:04;103852.22;;;-0.01;100.00
63111;BME280;49201;53.426;10.300;2023-01-25T01:35:30;103847.19;;;-0.01;100.00
63111;BME280;49201;53.426;10.300;2023-01-25T01:37:56;103852.56;;;0.02;100.00
63111;BME280;49201;53.426;10.300;2023-01-25T01:40:21;103846.63;;;0.01;100.00
63111;BME280;49201;53.426;10.300;2023-01-25T01:43:00;103849.88;;;0.00;100.00
63111;BME280;49201;53.426;10.300;2023-01-25T01:50:42;103836.63;;;-0.06;100.00
63111;BME280;49201;53.426;10.300;2023-01-25T01:53:08;103838.13;;;-0.15;100.00
63111;BME280;49201;53.426;10.300;2023-01-25T01:55:34;103829.06;;;-0.06;100.00
63111;BME280;49201;53.426;10.300;2023-01-25T01:58:01;103837.50;;;-0.05;100.00
63111;BME280;49201;53.426;10.300;2023-01-25T02:00:31;103839.63;;;-0.01;100.00
63111;BME280;49201;53.426;10.300;2023-01-25T02:03:00;103846.53;;;-0.07;100.00
63111;BME280;49201;53.426;10.300;2023-01-25T02:05:53;103842.97;;;-0.09;100.00
63111;BME280;49201;53.426;10.300;2023-01-25T02:08:21;103841.00;;;-0.12;100.00
63111;BME280;49201;53.426;10.300;2023-01-25T02:10:49;103832.47;;;-0.05;100.00
63111;BME280;49201;53.426;10.300;2023-01-25T02:13:16;103823.69;;;-0.09;100.00
63111;BME280;49201;53.426;10.300;2023-01-25T02:15:45;103820.63;;;-0.06;100.00
63111;BME280;49201;53.426;10.300;2023-01-25T02:18:12;103815.94;;;-0.03;100.00
63111;BME280;49201;53.426;10.300;2023-01-25T02:23:17;103812.19;;;-0.07;100.00
63111;BME280;49201;53.426;10.300;2023-01-25T02:25:45;103813.41;;;-0.03;100.00
63111;BME280;49201;53.426;10.300;2023-01-25T02:28:17;103808.03;;;-0.06;100.00
63111;BME280;49201;53.426;10.300;2023-01-25T02:30:44;103802.69;;;-0.09;100.00
63111;BME280;49201;53.426;10.300;2023-01-25T02:33:10;103797.53;;;-0.18;100.00
63111;BME280;49201;53.426;10.300;2023-01-25T02:35:42;103798.22;;;-0.12;100.00
63111;BME280;49201;53.426;10.300;2023-01-25T02:38:11;103811.19;;;-0.16;100.00
63111;BME280;49201;53.426;10.300;2023-01-25T02:40:56;103806.16;;;-0.16;100.00
63111;BME280;49201;53.426;10.300;2023-01-25T02:43:27;103805.06;;;-0.18;100.00
63111;BME280;49201;53.426;10.300;2023-01-25T02:45:59;103811.22;;;-0.23;100.00
63111;BME280;49201;53.426;10.300;2023-01-25T02:48:26;103806.38;;;-0.21;100.00
63111;BME280;49201;53.426;10.300;2023-01-25T02:50:52;103804.03;;;-0.20;100.00
63111;BME280;49201;53.426;10.300;2023-01-25T02:53:17;103800.28;;;-0.23;100.00
63111;BME280;49201;53.426;10.300;2023-01-25T02:55:43;103803.13;;;-0.20;100.00
63111;BME280;49201;53.426;10.300;2023-01-25T02:58:09;103793.44;;;-0.24;100.00
63111;BME280;49201;53.426;10.300;2023-01-25T03:00:35;103790.22;;;-0.23;100.00
63111;BME280;49201;53.426;10.300;2023-01-25T03:03:00;103784.66;;;-0.28;100.00
63111;BME280;49201;53.426;10.300;2023-01-25T03:05:26;103786.63;;;-0.25;100.00
63111;BME280;49201;53.426;10.300;2023-01-25T03:07:51;103771.59;;;-0.32;100.00
63111;BME280;49201;53.426;10.300;2023-01-25T03:10:17;103774.66;;;-0.35;100.00
63111;BME280;49201;53.426;10.300;2023-01-25T03:12:43;103773.41;;;-0.38;100.00
63111;BME280;49201;53.426;10.300;2023-01-25T03:15:09;103771.63;;;-0.39;100.00
63111;BME280;49201;53.426;10.300;2023-01-25T03:17:34;103771.25;;;-0.35;100.00
63111;BME280;49201;53.426;10.300;2023-01-25T03:20:00;103770.69;;;-0.33;100.00
63111;BME280;49201;53.426;10.300;2023-01-25T03:22:26;103763.47;;;-0.30;100.00
63111;BME280;49201;53.426;10.300;2023-01-25T03:24:51;103759.72;;;-0.33;100.00
63111;BME280;49201;53.426;10.300;2023-01-25T03:27:17;103749.34;;;-0.36;100.00
63111;BME280;49201;53.426;10.300;2023-01-25T03:29:46;103751.13;;;-0.35;100.00
63111;BME280;49201;53.426;10.300;2023-01-25T03:32:16;103746.44;;;-0.32;100.00
63111;BME280;49201;53.426;10.300;2023-01-25T03:34:41;103739.91;;;-0.30;100.00
63111;BME280;49201;53.426;10.300;2023-01-25T03:37:08;103736.50;;;-0.31;100.00
63111;BME280;49201;53.426;10.300;2023-01-25T03:39:35;103734.41;;;-0.35;100.00
63111;BME280;49201;53.426;10.300;2023-01-25T03:42:00;103741.41;;;-0.32;100.00
63111;BME280;49201;53.426;10.300;2023-01-25T03:44:26;103732.94;;;-0.33;100.00
63111;BME280;49201;53.426;10.300;2023-01-25T03:46:51;103740.88;;;-0.37;100.00
63111;BME280;49201;53.426;10.300;2023-01-25T03:49:18;103736.38;;;-0.32;100.00
63111;BME280;49201;53.426;10.300;2023-01-25T03:51:44;103737.97;;;-0.33;100.00
63111;BME280;49201;53.426;10.300;2023-01-25T03:54:11;103736.75;;;-0.36;100.00
63111;BME280;49201;53.426;10.300;2023-01-25T03:56:37;103735.34;;;-0.41;100.00
63111;BME280;49201;53.426;10.300;2023-01-25T03:59:08;103738.91;;;-0.39;100.00
63111;BME280;49201;53.426;10.300;2023-01-25T04:01:34;103746.84;;;-0.43;100.00
63111;BME280;49201;53.426;10.300;2023-01-25T04:04:01;103746.13;;;-0.42;100.00
63111;BME280;49201;53.426;10.300;2023-01-25T04:06:26;103735.50;;;-0.40;100.00
63111;BME280;49201;53.426;10.300;2023-01-25T04:08:52;103742.47;;;-0.37;100.00
63111;BME280;49201;53.426;10.300;2023-01-25T04:11:20;103734.06;;;-0.38;100.00
63111;BME280;49201;53.426;10.300;2023-01-25T04:13:47;103728.50;;;-0.42;100.00
63111;BME280;49201;53.426;10.300;2023-01-25T04:16:14;103730.47;;;-0.40;100.00
63111;BME280;49201;53.426;10.300;2023-01-25T04:19:18;103714.50;;;-0.40;100.00
63111;BME280;49201;53.426;10.300;2023-01-25T04:21:45;103712.84;;;-0.40;100.00
63111;BME280;49201;53.426;10.300;2023-01-25T04:24:10;103717.75;;;-0.41;100.00
63111;BME280;49201;53.426;10.300;2023-01-25T04:26:38;103710.03;;;-0.43;100.00
63111;BME280;49201;53.426;10.300;2023-01-25T04:29:04;103708.25;;;-0.44;100.00
63111;BME280;49201;53.426;10.300;2023-01-25T04:31:31;103705.47;;;-0.38;100.00
63111;BME280;49201;53.426;10.300;2023-01-25T04:33:57;103703.13;;;-0.37;100.00
63111;BME280;49201;53.426;10.300;2023-01-25T04:36:22;103700.22;;;-0.33;100.00
63111;BME280;49201;53.426;10.300;2023-01-25T04:38:48;103704.34;;;-0.33;100.00
63111;BME280;49201;53.426;10.300;2023-01-25T04:41:13;103702.97;;;-0.38;100.00
63111;BME280;49201;53.426;10.300;2023-01-25T04:43:40;103697.53;;;-0.34;100.00
63111;BME280;49201;53.426;10.300;2023-01-25T04:46:08;103694.84;;;-0.36;100.00
63111;BME280;49201;53.426;10.300;2023-01-25T04:48:34;103684.47;;;-0.39;100.00
63111;BME280;49201;53.426;10.300;2023-01-25T04:51:03;103689.81;;;-0.36;100.00
63111;BME280;49201;53.426;10.300;2023-01-25T04:53:28;103676.53;;;-0.35;100.00
63111;BME280;49201;53.426;10.300;2023-01-25T04:55:58;103685.88;;;-0.34;100.00
63111;BME280;49201;53.426;10.300;2023-01-25T04:58:24;103683.91;;;-0.36;100.00
63111;BME280;49201;53.426;10.300;2023-01-25T05:00:51;103679.91;;;-0.34;100.00
63111;BME280;49201;53.426;10.300;2023-01-25T05:03:16;103677.91;;;-0.30;100.00
63111;BME280;49201;53.426;10.300;2023-01-25T05:05:45;103682.22;;;-0.29;100.00
63111;BME280;49201;53.426;10.300;2023-01-25T05:08:12;103676.44;;;-0.28;100.00
63111;BME280;49201;53.426;10.300;2023-01-25T05:10:37;103673.94;;;-0.28;100.00
63111;BME280;49201;53.426;10.300;2023-01-25T05:13:21;103664.59;;;-0.29;100.00
63111;BME280;49201;53.426;10.300;2023-01-25T05:15:50;103667.97;;;-0.28;100.00
63111;BME280;49201;53.426;10.300;2023-01-25T05:18:15;103675.06;;;-0.33;100.00
63111;BME280;49201;53.426;10.300;2023-01-25T05:20:41;103665.72;;;-0.34;100.00
63111;BME280;49201;53.426;10.300;2023-01-25T05:23:06;103668.41;;;-0.32;100.00
63111;BME280;49201;53.426;10.300;2023-01-25T05:25:32;103661.09;;;-0.38;100.00
63111;BME280;49201;53.426;10.300;2023-01-25T05:28:24;103660.19;;;-0.38;100.00
63111;BME280;49201;53.426;10.300;2023-01-25T05:31:04;103660.88;;;-0.32;100.00
63111;BME280;49201;53.426;10.300;2023-01-25T05:33:31;103668.41;;;-0.32;100.00
63111;BME280;49201;53.426;10.300;2023-01-25T05:35:57;103662.53;;;-0.40;100.00
63111;BME280;49201;53.426;10.300;2023-01-25T05:38:24;103646.88;;;-0.37;100.00
63111;BME280;49201;53.426;10.300;2023-01-25T05:40:49;103648.50;;;-0.38;100.00
63111;BME280;49201;53.426;10.300;2023-01-25T05:43:15;103649.72;;;-0.34;100.00
63111;BME280;49201;53.426;10.300;2023-01-25T05:45:40;103649.72;;;-0.34;100.00
63111;BME280;49201;53.426;10.300;2023-01-25T05:48:07;103650.06;;;-0.31;100.00
63111;BME280;49201;53.426;10.300;2023-01-25T05:50:32;103652.59;;;-0.31;100.00
63111;BME280;49201;53.426;10.300;2023-01-25T05:53:07;103649.72;;;-0.34;100.00
63111;BME280;49201;53.426;10.300;2023-01-25T05:55:34;103644.28;;;-0.30;100.00
63111;BME280;49201;53.426;10.300;2023-01-25T05:58:04;103646.97;;;-0.29;100.00
63111;BME280;49201;53.426;10.300;2023-01-25T06:00:30;103644.47;;;-0.29;100.00
63111;BME280;49201;53.426;10.300;2023-01-25T06:02:59;103633.88;;;-0.33;100.00
63111;BME280;49201;53.426;10.300;2023-01-25T06:05:24;103634.28;;;-0.37;100.00
63111;BME280;49201;53.426;10.300;2023-01-25T06:07:50;103628.22;;;-0.39;100.00
63111;BME280;49201;53.426;10.300;2023-01-25T06:10:17;103628.03;;;-0.41;100.00
63111;BME280;49201;53.426;10.300;2023-01-25T06:12:44;103623.19;;;-0.39;100.00
63111;BME280;49201;53.426;10.300;2023-01-25T06:15:10;103626.03;;;-0.36;100.00
63111;BME280;49201;53.426;10.300;2023-01-25T06:17:36;103623.13;;;-0.32;100.00
63111;BME280;49201;53.426;10.300;2023-01-25T06:20:15;103615.22;;;-0.35;100.00
63111;BME280;49201;53.426;10.300;2023-01-25T06:22:57;103619.34;;;-0.36;100.00
63111;BME280;49201;53.426;10.300;2023-01-25T06:25:22;103619.91;;;-0.38;100.00
63111;BME280;49201;53.426;10.300;2023-01-25T06:27:48;103618.88;;;-0.40;100.00
63111;BME280;49201;53.426;10.300;2023-01-25T06:30:13;103624.22;;;-0.37;100.00
63111;BME280;49201;53.426;10.300;2023-01-25T06:32:39;103624.38;;;-0.36;100.00
63111;BME280;49201;53.426;10.300;2023-01-25T06:35:04;103621.16;;;-0.35;100.00
63111;BME280;49201;53.426;10.300;2023-01-25T06:37:30;103620.25;;;-0.35;100.00
63111;BME280;49201;53.426;10.300;2023-01-25T06:39:56;103623.13;;;-0.32;100.00
63111;BME280;49201;53.426;10.300;2023-01-25T06:42:24;103622.22;;;-0.33;100.00
63111;BME280;49201;53.426;10.300;2023-01-25T06:44:49;103636.09;;;-0.36;100.00
63111;BME280;49201;53.426;10.300;2023-01-25T06:47:15;103634.19;;;-0.46;100.00
63111;BME280;49201;53.426;10.300;2023-01-25T06:49:40;103634.53;;;-0.43;100.00
63111;BME280;49201;53.426;10.300;2023-01-25T06:52:06;103636.09;;;-0.36;100.00
63111;BME280;49201;53.426;10.300;2023-01-25T06:54:32;103633.88;;;-0.33;100.00
63111;BME280;49201;53.426;10.300;2023-01-25T06:56:57;103636.41;;;-0.33;100.00
63111;BME280;49201;53.426;10.300;2023-01-25T06:59:23;103640.78;;;-0.39;100.00
63111;BME280;49201;53.426;10.300;2023-01-25T07:01:48;103636.81;;;-0.37;100.00
63111;BME280;49201;53.426;10.300;2023-01-25T07:04:14;103635.94;;;-0.38;100.00
63111;BME280;49201;53.426;10.300;2023-01-25T07:06:40;103633.00;;;-0.34;100.00
63111;BME280;49201;53.426;10.300;2023-01-25T07:09:09;103627.97;;;-0.34;100.00
63111;BME280;49201;53.426;10.300;2023-01-25T07:11:34;103635.53;;;-0.34;100.00
63111;BME280;49201;53.426;10.300;2023-01-25T07:14:01;103618.78;;;-0.33;100.00
63111;BME280;49201;53.426;10.300;2023-01-25T07:16:26;103615.56;;;-0.32;100.00
63111;BME280;49201;53.426;10.300;2023-01-25T07:18:53;103606.06;;;-0.35;100.00
63111;BME280;49201;53.426;10.300;2023-01-25T07:21:20;103611.09;;;-0.35;100.00
63111;BME280;49201;53.426;10.300;2023-01-25T07:23:50;103603.13;;;-0.31;100.00
63111;BME280;49201;53.426;10.300;2023-01-25T07:26:23;103604.03;;;-0.30;100.00
63111;BME280;49201;53.426;10.300;2023-01-25T07:28:49;103598.44;;;-0.28;100.00
63111;BME280;49201;53.426;10.300;2023-01-25T07:31:16;103599.34;;;-0.27;100.00
63111;BME280;49201;53.426;10.300;2023-01-25T07:33:42;103595.50;;;-0.24;100.00
63111;BME280;49201;53.426;10.300;2023-01-25T07:36:09;103596.25;;;-0.25;100.00
63111;BME280;49201;53.426;10.300;2023-01-25T07:38:35;103592.81;;;-0.25;100.00
63111;BME280;49201;53.426;10.300;2023-01-25T07:41:01;103591.38;;;-0.23;100.00
63111;BME280;49201;53.426;10.300;2023-01-25T07:43:27;103587.22;;;-0.23;100.00
63111;BME280;49201;53.426;10.300;2023-01-25T07:45:59;103588.53;;;-0.26;100.00
63111;BME280;49201;53.426;10.300;2023-01-25T07:48:24;103583.84;;;-0.23;100.00
63111;BME280;49201;53.426;10.300;2023-01-25T07:50:50;103586.34;;;-0.23;100.00
63111;BME280;49201;53.426;10.300;2023-01-25T07:53:35;103577.56;;;-0.27;100.00
63111;BME280;49201;53.426;10.300;2023-01-25T07:56:00;103579.34;;;-0.26;100.00
63111;BME280;49201;53.426;10.300;2023-01-25T07:58:26;103579.19;;;-0.27;100.00
63111;BME280;49201;53.426;10.300;2023-01-25T08:00:51;103572.53;;;-0.27;100.00
63111;BME280;49201;53.426;10.300;2023-01-25T08:03:18;103576.97;;;-0.24;100.00
63111;BME280;49201;53.426;10.300;2023-01-25T08:05:46;103572.44;;;-0.20;100.00
63111;BME280;49201;53.426;10.300;2023-01-25T08:08:12;103572.44;;;-0.20;100.00
63111;BME280;49201;53.426;10.300;2023-01-25T08:10:38;103565.47;;;-0.22;100.00
63111;BME280;49201;53.426;10.300;2023-01-25T08:13:03;103552.16;;;-0.21;100.00
63111;BME280;49201;53.426;10.300;2023-01-25T08:15:29;103555.25;;;-0.24;100.00
63111;BME280;49201;53.426;10.300;2023-01-25T08:17:58;103549.63;;;-0.21;100.00
63111;BME280;49201;53.426;10.300;2023-01-25T08:20:24;103554.66;;;-0.21;100.00
63111;BME280;49201;53.426;10.300;2023-01-25T08:22:51;103544.03;;;-0.19;100.00
63111;BME280;49201;53.426;10.300;2023-01-25T08:25:16;103530.97;;;-0.23;100.00
63111;BME280;49201;53.426;10.300;2023-01-25T08:27:42;103534.69;;;-0.20;100.00
63111;BME280;49201;53.426;10.300;2023-01-25T08:30:07;103541.91;;;-0.23;100.00
63111;BME280;49201;53.426;10.300;2023-01-25T08:32:34;103529.50;;;-0.21;100.00
63111;BME280;49201;53.426;10.300;2023-01-25T08:34:59;103526.81;;;-0.23;100.00
63111;BME280;49201;53.426;10.300;2023-01-25T08:37:25;103534.53;;;-0.21;100.00
63111;BME280;49201;53.426;10.300;2023-01-25T08:39:54;103529.00;;;-0.26;100.00
63111;BME280;49201;53.426;10.300;2023-01-25T08:42:21;103529.34;;;-0.23;100.00
63111;BME280;49201;53.426;10.300;2023-01-25T08:44:47;103529.66;;;-0.20;100.00
63111;BME280;49201;53.426;10.300;2023-01-25T08:47:12;103528.94;;;-0.19;100.00
63111;BME280;49201;53.426;10.300;2023-01-25T08:49:38;103525.50;;;-0.19;100.00
63111;BME280;49201;53.426;10.300;2023-01-25T08:52:03;103517.25;;;-0.18;100.00
63111;BME280;49201;53.426;10.300;2023-01-25T08:54:29;103517.66;;;-0.22;100.00
63111;BME280;49201;53.426;10.300;2023-01-25T08:56:54;103517.09;;;-0.20;100.00
63111;BME280;49201;53.426;10.300;2023-01-25T08:59:20;103508.06;;;-0.18;100.00
63111;BME280;49201;53.426;10.300;2023-01-25T09:01:45;103509.81;;;-0.17;100.00
63111;BME280;49201;53.426;10.300;2023-01-25T09:04:11;103509.81;;;-0.17;100.00
63111;BME280;49201;53.426;10.300;2023-01-25T09:06:36;103500.50;;;-0.18;100.00
63111;BME280;49201;53.426;10.300;2023-01-25T09:09:02;103491.91;;;-0.20;100.00
63111;BME280;49201;53.426;10.300;2023-01-25T09:11:29;103492.22;;;-0.17;100.00
63111;BME280;49201;53.426;10.300;2023-01-25T09:13:54;103487.91;;;-0.18;100.00
63111;BME280;49201;53.426;10.300;2023-01-25T09:16:22;103482.13;;;-0.17;100.00
63111;BME280;49201;53.426;10.300;2023-01-25T09:18:53;103485.91;;;-0.13;100.00
63111;BME280;49201;53.426;10.300;2023-01-25T09:21:19;103489.44;;;-0.11;100.00
63111;BME280;49201;53.426;10.300;2023-01-25T09:23:47;103480.38;;;-0.18;100.00
63111;BME280;49201;53.426;10.300;2023-01-25T09:26:13;103481.56;;;-0.14;100.00
63111;BME280;49201;53.426;10.300;2023-01-25T09:28:40;103475.41;;;-0.09;100.00
63111;BME280;49201;53.426;10.300;2023-01-25T09:31:06;103472.19;;;0.00;100.00
63111;BME280;49201;53.426;10.300;2023-01-25T09:33:58;103475.63;;;0.01;100.00
63111;BME280;49201;53.426;10.300;2023-01-25T09:36:23;103480.75;;;-0.06;100.00
63111;BME280;49201;53.426;10.300;2023-01-25T09:38:49;103476.91;;;-0.03;100.00
63111;BME280;49201;53.426;10.300;2023-01-25T09:41:38;103474.72;;;0.00;100.00
63111;BME280;49201;53.426;10.300;2023-01-25T09:46:52;103470.31;;;0.06;100.00
63111;BME280;49201;53.426;10.300;2023-01-25T09:49:43;103472.53;;;0.03;100.00
63111;BME280;49201;53.426;10.300;2023-01-25T09:54:45;103455.19;;;0.06;100.00
63111;BME280;49201;53.426;10.300;2023-01-25T09:57:30;103461.31;;;0.08;100.00
63111;BME280;49201;53.426;10.300;2023-01-25T10:00:00;103448.28;;;0.13;100.00
63111;BME280;49201;53.426;10.300;2023-01-25T10:02:44;103460.59;;;0.18;100.00
63111;BME280;49201;53.426;10.300;2023-01-25T10:05:18;103454.84;;;0.19;100.00
63111;BME280;49201;53.426;10.300;2023-01-25T10:10:40;103442.34;;;0.12;100.00
63111;BME280;49201;53.426;10.300;2023-01-25T10:13:20;103444.09;;;0.04;100.00
63111;BME280;49201;53.426;10.300;2023-01-25T10:15:56;103435.53;;;0.11;100.00
63111;BME280;49201;53.426;10.300;2023-01-25T10:18:32;103431.94;;;0.09;100.00
63111;BME280;49201;53.426;10.300;2023-01-25T10:21:06;103432.84;;;0.09;100.00
63111;BME280;49201;53.426;10.300;2023-01-25T10:26:31;103430.38;;;0.18;100.00
63111;BME280;49201;53.426;10.300;2023-01-25T10:29:12;103424.03;;;0.22;100.00
63111;BME280;49201;53.426;10.300;2023-01-25T10:31:49;103415.91;;;0.24;100.00
63111;BME280;49201;53.426;10.300;2023-01-25T10:34:23;103411.66;;;0.32;100.00
63111;BME280;49201;53.426;10.300;2023-01-25T10:36:53;103407.19;;;0.29;100.00
63111;BME280;49201;53.426;10.300;2023-01-25T10:39:20;103406.13;;;0.27;100.00
63111;BME280;49201;53.426;10.300;2023-01-25T10:41:53;103395.63;;;0.31;100.00
63111;BME280;49201;53.426;10.300;2023-01-25T10:44:20;103396.69;;;0.33;100.00
63111;BME280;49201;53.426;10.300;2023-01-25T10:47:02;103390.75;;;0.32;100.00
63111;BME280;49201;53.426;10.300;2023-01-25T10:55:18;103383.75;;;0.22;100.00
63111;BME280;49201;53.426;10.300;2023-01-25T10:57:52;103373.53;;;0.20;100.00
63111;BME280;49201;53.426;10.300;2023-01-25T11:00:39;103370.41;;;0.22;100.00
63111;BME280;49201;53.426;10.300;2023-01-25T11:03:05;103370.56;;;0.24;100.00
63111;BME280;49201;53.426;10.300;2023-01-25T11:05:55;103359.59;;;0.23;100.00
63111;BME280;49201;53.426;10.300;2023-01-25T11:08:25;103362.13;;;0.23;100.00
63111;BME280;49201;53.426;10.300;2023-01-25T11:10:52;103367.00;;;0.22;100.00
63111;BME280;49201;53.426;10.300;2023-01-25T11:13:28;103359.16;;;0.19;100.00
63111;BME280;49201;53.426;10.300;2023-01-25T11:18:33;103348.28;;;0.11;100.00
63111;BME280;49201;53.426;10.300;2023-01-25T11:23:29;103337.34;;;0.19;100.00
63111;BME280;49201;53.426;10.300;2023-01-25T11:26:16;103338.41;;;0.22;100.00
63111;BME280;49201;53.426;10.300;2023-01-25T11:28:43;103321.22;;;0.17;100.00
63111;BME280;49201;53.426;10.300;2023-01-25T11:31:13;103319.53;;;0.09;100.00
63111;BME280;49201;53.426;10.300;2023-01-25T11:33:40;103313.94;;;0.12;100.00
63111;BME280;49201;53.426;10.300;2023-01-25T11:36:36;103303.41;;;0.08;100.00
63111;BME280;49201;53.426;10.300;2023-01-25T11:49:46;103256.50;;;0.33;100.00
63111;BME280;49201;53.426;10.300;2023-01-25T12:00:21;103242.41;;;0.27;100.00
63111;BME280;49201;53.426;10.300;2023-01-25T12:05:42;103223.59;;;0.32;100.00
63111;BME280;49201;53.426;10.300;2023-01-25T12:11:04;103225.13;;;0.47;100.00
63111;BME280;49201;53.426;10.300;2023-01-25T12:24:43;103187.00;;;0.44;100.00
63111;BME280;49201;53.426;10.300;2023-01-25T12:27:28;103184.78;;;0.38;100.00
63111;BME280;49201;53.426;10.300;2023-01-25T12:30:03;103184.19;;;0.32;100.00
63111;BME280;49201;53.426;10.300;2023-01-25T12:32:40;103175.16;;;0.26;100.00
63111;BME280;49201;53.426;10.300;2023-01-25T12:37:38;103151.59;;;0.26;100.00
63111;BME280;49201;53.426;10.300;2023-01-25T12:40:16;103145.38;;;0.22;100.00
63111;BME280;49201;53.426;10.300;2023-01-25T12:42:50;103138.13;;;0.25;100.00
63111;BME280;49201;53.426;10.300;2023-01-25T12:45:21;103133.22;;;0.27;100.00
63111;BME280;49201;53.426;10.300;2023-01-25T12:47:56;103123.59;;;0.31;100.00
63111;BME280;49201;53.426;10.300;2023-01-25T12:50:41;103123.16;;;0.27;100.00
63111;BME280;49201;53.426;10.300;2023-01-25T12:55:41;103111.75;;;0.30;100.00
63111;BME280;49201;53.426;10.300;2023-01-25T12:58:18;103102.56;;;0.31;100.00
63111;BME280;49201;53.426;10.300;2023-01-25T13:01:10;103103.16;;;0.37;100.00
63111;BME280;49201;53.426;10.300;2023-01-25T13:16:51;103090.69;;;0.04;100.00
63111;BME280;49201;53.426;10.300;2023-01-25T13:21:55;103098.41;;;0.05;100.00
63111;BME280;49201;53.426;10.300;2023-01-25T13:24:29;103101.66;;;0.04;100.00
63111;BME280;49201;53.426;10.300;2023-01-25T13:31:58;103090.56;;;0.11;100.00
63111;BME280;49201;53.426;10.300;2023-01-25T13:37:14;103076.03;;;0.17;100.00
63111;BME280;49201;53.426;10.300;2023-01-25T13:39:52;103074.56;;;0.19;100.00
63111;BME280;49201;53.426;10.300;2023-01-25T13:42:21;103065.81;;;0.15;100.00
63111;BME280;49201;53.426;10.300;2023-01-25T13:44:50;103071.00;;;0.17;100.00
63111;BME280;49201;53.426;10.300;2023-01-25T13:47:25;103059.59;;;0.20;100.00
63111;BME280;49201;53.426;10.300;2023-01-25T13:52:23;103063.75;;;0.11;100.00
63111;BME280;49201;53.426;10.300;2023-01-25T13:54:53;103059.88;;;0.06;100.00
63111;BME280;49201;53.426;10.300;2023-01-25T13:57:25;103058.88;;;0.04;100.00
63111;BME280;49201;53.426;10.300;2023-01-25T14:00:17;103048.38;;;0.00;100.00
63111;BME280;49201;53.426;10.300;2023-01-25T14:02:44;103062.88;;;0.03;100.00
63111;BME280;49201;53.426;10.300;2023-01-25T14:05:21;103060.06;;;-0.01;100.00
63111;BME280;49201;53.426;10.300;2023-01-25T14:07:50;103052.34;;;-0.02;100.00
63111;BME280;49201;53.426;10.300;2023-01-25T14:10:22;103048.38;;;0.00;100.00
63111;BME280;49201;53.426;10.300;2023-01-25T14:12:53;103051.44;;;-0.03;100.00
63111;BME280;49201;53.426;10.300;2023-01-25T14:15:26;103048.06;;;-0.03;100.00
63111;BME280;49201;53.426;10.300;2023-01-25T14:18:15;103039.75;;;-0.02;100.00
63111;BME280;49201;53.426;10.300;2023-01-25T14:20:45;103028.50;;;0.03;100.00
63111;BME280;49201;53.426;10.300;2023-01-25T14:25:49;103035.78;;;0.00;100.00